Nord Nanami — 3EWR2 — position and weather

sailwx.info

Track history (hours):
 
Tides and Currents Weather Stations Pressure Air Temp Water Temp Dewpoint Dewpoint Depression Visibility Wind Speed Wind Dir Waves Ship Positions

Nord Nanami

Last reported at 2016-Jun-23 01:23 UTC. Time now 2016-Jun-25 01:46 UTC.
Position N 39°12' W 009°51'.

Length 180 m; draft 9.2 m.

Type: Cargo ship. MMSI: 373694000.

Date/timePositionNaut miles runAvg speedWind from/ knotsBaromVisibWave heightAir tempDewpointWater temp
2016-Jun-23 01:23N 39°12' W 009°51'911.4
2016-Jun-23 00:33N 39°02' W 009°51'1111.5
2016-Jun-22 23:33N 38°51' W 009°51'1111.5
2016-Jun-22 22:33N 38°39' W 009°51'1211.2
2016-Jun-22 21:32N 38°28' W 009°48'1111.1
2016-Jun-22 20:33N 38°18' W 009°44'1111.0
2016-Jun-22 19:33N 38°07' W 009°41'1111.2
2016-Jun-22 18:33N 37°56' W 009°38'1111.4
2016-Jun-22 17:33N 37°45' W 009°34'1211.7
2016-Jun-22 16:33N 37°34' W 009°31'1111.3
2016-Jun-22 15:33N 37°23' W 009°28'1111.2
2016-Jun-22 14:34N 37°12' W 009°25'1211.7
2016-Jun-22 13:33N 37°00' W 009°21'1211.5
2016-Jun-22 12:32N 36°50' W 009°15'1111.4
2016-Jun-22 11:34N 36°43' W 009°04'5212.6
2016-Jun-22 07:24N 36°27' W 008°02'4012.5
2016-Jun-22 04:12N 36°15' W 007°14'8412.6
2016-Jun-21 21:33N 35°59' W 005°32'10 9.7
2016-Jun-21 20:33N 36°01' W 005°20'1111.1
2016-Jun-21 19:33N 36°02' W 005°07'11711.3
2016-Jun-21 09:16N 36°16' W 002°43'5912.4
2016-Jun-21 04:31N 36°25' W 001°31'3612.0
2016-Jun-21 01:33N 36°32' W 000°48'1311.5
2016-Jun-21 00:25N 36°35' W 000°32'1011.3
2016-Jun-20 23:33N 36°37' W 000°20'1211.6
2016-Jun-20 22:33N 36°39' W 000°06'1212.1
2016-Jun-20 21:33N 36°42' E 000°09'56511.3
2016-Jun-18 19:33N 37°09' E 011°55'5211.9
2016-Jun-18 15:11N 36°48' E 012°55'812.3
2016-Jun-18 14:33N 36°46' E 013°04'1211.7
2016-Jun-18 13:33N 36°42' E 013°18'1211.7
2016-Jun-18 12:33N 36°38' E 013°32'1312.5
2016-Jun-18 11:33N 36°34' E 013°47'1312.8
2016-Jun-18 10:33N 36°31' E 014°02'1312.8
2016-Jun-18 09:33N 36°30' E 014°18'1312.6
2016-Jun-18 08:33N 36°29' E 014°33'1312.8
2016-Jun-18 07:33N 36°29' E 014°49'1313.1
2016-Jun-18 06:33N 36°28' E 015°06'39312.5
2016-Jun-16 23:06N 36°26' E 023°14'2312.8
2016-Jun-16 21:19N 36°44' E 023°31'2812.8
2016-Jun-16 19:10N 37°08' E 023°48'813.1
2016-Jun-16 18:33N 37°15' E 023°53'1312.9
2016-Jun-16 17:33N 37°26' E 024°01'1312.5
2016-Jun-16 16:33N 37°37' E 024°09'1312.9
2016-Jun-16 15:33N 37°46' E 024°20'15312.8
2016-Jun-16 03:33N 39°59' E 025°58'430 9.1
2016-Jun-14 04:33N 46°06' E 031°04'1212.0
2016-Jun-14 03:33N 46°15' E 030°53'1211.8
2016-Jun-14 02:33N 46°27' E 030°55'8 7.7
2016-Jun-14 01:33N 46°34' E 031°00'4 3.8
2016-Jun-14 00:32N 46°38' E 031°01'0 0.0
2016-Jun-13 23:32N 46°38' E 031°01'0 0.0
2016-Jun-13 22:29N 46°38' E 031°01'0 0.0
2016-Jun-13 21:32N 46°38' E 031°01'0 0.0
2016-Jun-13 20:32N 46°38' E 031°01'0 0.0
2016-Jun-13 19:26N 46°38' E 031°01'0 0.0
2016-Jun-13 18:32N 46°38' E 031°01'0 0.0
2016-Jun-13 17:29N 46°38' E 031°01'0 0.0
2016-Jun-13 16:32N 46°38' E 031°01'0 0.0
2016-Jun-13 15:32N 46°38' E 031°01'0 0.0
2016-Jun-13 14:32N 46°38' E 031°01'0 0.0
2016-Jun-13 13:32N 46°38' E 031°01'0 0.0
2016-Jun-13 12:29N 46°38' E 031°01'0 0.0
2016-Jun-13 11:32N 46°38' E 031°01'0 0.0
2016-Jun-13 10:32N 46°38' E 031°01'0 0.0
2016-Jun-13 09:32N 46°38' E 031°01'0 0.0
2016-Jun-13 08:32N 46°38' E 031°01'0 0.0
2016-Jun-13 07:32N 46°38' E 031°01'0 0.0
2016-Jun-13 06:32N 46°38' E 031°01'0 0.0
2016-Jun-13 05:32N 46°38' E 031°01'0 0.0
2016-Jun-13 04:32N 46°38' E 031°01'0 0.0
2016-Jun-13 03:32N 46°38' E 031°01'0 0.0
2016-Jun-13 02:32N 46°38' E 031°01'0 0.0
2016-Jun-13 01:32N 46°38' E 031°01'  
Track history (hours):
 
Tides and Currents Weather Stations Pressure Air Temp Water Temp Dewpoint Dewpoint Depression Visibility Wind Speed Wind Dir Waves Ship Positions

Nord Nanami

Last reported at 2016-Jun-23 01:23 UTC. Time now 2016-Jun-25 01:46 UTC.
Position N 39°12' W 009°51'.

Length 180 m; draft 9.2 m.

Type: Cargo ship. MMSI: 373694000.

Date/timePositionNaut miles runAvg speedWind from/ knotsBaromVisibWave heightAir tempDewpointWater temp
2016-Jun-23 01:23N 39°12' W 009°51'911.4
2016-Jun-23 00:33N 39°02' W 009°51'1111.5
2016-Jun-22 23:33N 38°51' W 009°51'1111.5
2016-Jun-22 22:33N 38°39' W 009°51'1211.2
2016-Jun-22 21:32N 38°28' W 009°48'1111.1
2016-Jun-22 20:33N 38°18' W 009°44'1111.0
2016-Jun-22 19:33N 38°07' W 009°41'1111.2
2016-Jun-22 18:33N 37°56' W 009°38'1111.4
2016-Jun-22 17:33N 37°45' W 009°34'1211.7
2016-Jun-22 16:33N 37°34' W 009°31'1111.3
2016-Jun-22 15:33N 37°23' W 009°28'1111.2
2016-Jun-22 14:34N 37°12' W 009°25'1211.7
2016-Jun-22 13:33N 37°00' W 009°21'1211.5
2016-Jun-22 12:32N 36°50' W 009°15'1111.4
2016-Jun-22 11:34N 36°43' W 009°04'5212.6
2016-Jun-22 07:24N 36°27' W 008°02'4012.5
2016-Jun-22 04:12N 36°15' W 007°14'8412.6
2016-Jun-21 21:33N 35°59' W 005°32'10 9.7
2016-Jun-21 20:33N 36°01' W 005°20'1111.1
2016-Jun-21 19:33N 36°02' W 005°07'11711.3
2016-Jun-21 09:16N 36°16' W 002°43'5912.4
2016-Jun-21 04:31N 36°25' W 001°31'3612.0
2016-Jun-21 01:33N 36°32' W 000°48'1311.5
2016-Jun-21 00:25N 36°35' W 000°32'1011.3
2016-Jun-20 23:33N 36°37' W 000°20'1211.6
2016-Jun-20 22:33N 36°39' W 000°06'1212.1
2016-Jun-20 21:33N 36°42' E 000°09'56511.3
2016-Jun-18 19:33N 37°09' E 011°55'5211.9
2016-Jun-18 15:11N 36°48' E 012°55'812.3
2016-Jun-18 14:33N 36°46' E 013°04'1211.7
2016-Jun-18 13:33N 36°42' E 013°18'1211.7
2016-Jun-18 12:33N 36°38' E 013°32'1312.5
2016-Jun-18 11:33N 36°34' E 013°47'1312.8
2016-Jun-18 10:33N 36°31' E 014°02'1312.8
2016-Jun-18 09:33N 36°30' E 014°18'1312.6
2016-Jun-18 08:33N 36°29' E 014°33'1312.8
2016-Jun-18 07:33N 36°29' E 014°49'1313.1
2016-Jun-18 06:33N 36°28' E 015°06'39312.5
2016-Jun-16 23:06N 36°26' E 023°14'2312.8
2016-Jun-16 21:19N 36°44' E 023°31'2812.8
2016-Jun-16 19:10N 37°08' E 023°48'813.1
2016-Jun-16 18:33N 37°15' E 023°53'1312.9
2016-Jun-16 17:33N 37°26' E 024°01'1312.5
2016-Jun-16 16:33N 37°37' E 024°09'1312.9
2016-Jun-16 15:33N 37°46' E 024°20'15312.8
2016-Jun-16 03:33N 39°59' E 025°58'430 9.1
2016-Jun-14 04:33N 46°06' E 031°04'1212.0
2016-Jun-14 03:33N 46°15' E 030°53'1211.8
2016-Jun-14 02:33N 46°27' E 030°55'8 7.7
2016-Jun-14 01:33N 46°34' E 031°00'4 3.8
2016-Jun-14 00:32N 46°38' E 031°01'0 0.0
2016-Jun-13 23:32N 46°38' E 031°01'0 0.0
2016-Jun-13 22:29N 46°38' E 031°01'0 0.0
2016-Jun-13 21:32N 46°38' E 031°01'0 0.0
2016-Jun-13 20:32N 46°38' E 031°01'0 0.0
2016-Jun-13 19:26N 46°38' E 031°01'0 0.0
2016-Jun-13 18:32N 46°38' E 031°01'0 0.0
2016-Jun-13 17:29N 46°38' E 031°01'0 0.0
2016-Jun-13 16:32N 46°38' E 031°01'0 0.0
2016-Jun-13 15:32N 46°38' E 031°01'0 0.0
2016-Jun-13 14:32N 46°38' E 031°01'0 0.0
2016-Jun-13 13:32N 46°38' E 031°01'0 0.0
2016-Jun-13 12:29N 46°38' E 031°01'0 0.0
2016-Jun-13 11:32N 46°38' E 031°01'0 0.0
2016-Jun-13 10:32N 46°38' E 031°01'0 0.0
2016-Jun-13 09:32N 46°38' E 031°01'0 0.0
2016-Jun-13 08:32N 46°38' E 031°01'0 0.0
2016-Jun-13 07:32N 46°38' E 031°01'0 0.0
2016-Jun-13 06:32N 46°38' E 031°01'0 0.0
2016-Jun-13 05:32N 46°38' E 031°01'0 0.0
2016-Jun-13 04:32N 46°38' E 031°01'0 0.0
2016-Jun-13 03:32N 46°38' E 031°01'0 0.0
2016-Jun-13 02:32N 46°38' E 031°01'0 0.0
2016-Jun-13 01:32N 46°38' E 031°01'  

Dump ship's entire track history